Time;durP1;ratioP1;P1;durP2;ratioP2;P2;SDS_P1;SDS_P2;PMS_P1;PMS_P2;Temp;Humidity;BMP_temperature;BMP_pressure;BME280_temperature;BME280_humidity;BME280_pressure;Samples;Min_cycle;Max_cycle;Signal;HPM_P1;HPM_P2
2023/05/30 00:00:51;;;;;;;9.60;5.85;;;;;;;;;;6267834;28;20380;-77
2023/05/30 00:03:51;;;;;;;15.73;6.57;;;;;;;;;;6250289;28;20013;-77
2023/05/30 00:06:52;;;;;;;13.37;7.10;;;;;;;;;;6250199;28;20145;-77
2023/05/30 00:09:52;;;;;;;15.87;7.70;;;;;;;;;;6259458;28;20094;-77
2023/05/30 00:12:52;;;;;;;15.18;7.18;;;;;;;;;;6266454;28;20072;-77
2023/05/30 00:15:54;;;;;;;11.88;7.10;;;;;;;;;;6268762;28;20065;-77
2023/05/30 00:18:56;;;;;;;14.10;7.75;;;;;;;;;;6250197;28;20019;-77
2023/05/30 00:21:57;;;;;;;12.82;7.38;;;;;;;;;;6250218;28;20082;-77
2023/05/30 00:24:59;;;;;;;14.63;7.20;;;;;;;;;;6268666;28;20020;-77
2023/05/30 00:27:59;;;;;;;14.13;7.32;;;;;;;;;;6269362;28;20037;-77
2023/05/30 00:31:00;;;;;;;17.43;7.77;;;;;;;;;;6267628;28;20032;-77
2023/05/30 00:34:00;;;;;;;19.73;7.45;;;;;;;;;;6267434;28;20108;-77
2023/05/30 00:37:00;;;;;;;17.45;7.43;;;;;;;;;;6268267;28;20074;-77
2023/05/30 00:40:00;;;;;;;17.53;7.47;;;;;;;;;;6267769;28;20017;-77
2023/05/30 00:43:01;;;;;;;15.27;7.13;;;;;;;;;;6246835;28;20020;-77
2023/05/30 00:46:01;;;;;;;14.50;7.67;;;;;;;;;;6266420;28;20048;-77
2023/05/30 00:49:02;;;;;;;16.57;7.60;;;;;;;;;;6266296;28;20017;-77
2023/05/30 00:52:02;;;;;;;15.73;6.70;;;;;;;;;;6267618;28;20009;-77
2023/05/30 00:55:03;;;;;;;14.03;7.83;;;;;;;;;;6267194;28;20036;-77
2023/05/30 00:58:03;;;;;;;14.43;7.00;;;;;;;;;;6267799;28;20066;-77
2023/05/30 01:01:04;;;;;;;18.37;7.73;;;;;;;;;;6267791;28;20509;-78
2023/05/30 01:04:04;;;;;;;13.40;7.38;;;;;;;;;;6267344;28;20025;-78
2023/05/30 01:07:06;;;;;;;18.70;7.73;;;;;;;;;;6267621;28;20036;-78
2023/05/30 01:10:06;;;;;;;15.50;7.33;;;;;;;;;;6267258;28;20407;-78
2023/05/30 01:13:25;;;;;;;19.00;9.00;;;;;;;;;;6266540;28;20041;-78
2023/05/30 01:16:28;;;;;;;14.25;6.40;;;;;;;;;;6248796;28;20029;-78
2023/05/30 01:19:35;;;;;;;14.55;7.85;;;;;;;;;;6249617;28;20044;-78
2023/05/30 01:22:36;;;;;;;13.18;6.78;;;;;;;;;;6269067;28;20074;-78
2023/05/30 01:25:57;;;;;;;12.27;7.43;;;;;;;;;;6265698;28;20013;-78
2023/05/30 01:28:58;;;;;;;13.13;7.50;;;;;;;;;;6266541;28;20029;-78
2023/05/30 01:32:00;;;;;;;15.17;6.97;;;;;;;;;;6264925;28;20440;-78
2023/05/30 01:35:00;;;;;;;13.40;7.53;;;;;;;;;;6262769;28;20027;-78
2023/05/30 01:38:01;;;;;;;16.43;6.90;;;;;;;;;;6256497;28;20495;-78
2023/05/30 01:41:02;;;;;;;14.10;7.80;;;;;;;;;;6270069;28;20048;-78
2023/05/30 01:44:02;;;;;;;12.88;6.65;;;;;;;;;;6267263;28;20025;-78
2023/05/30 01:47:05;;;;;;;13.63;6.87;;;;;;;;;;6266949;28;20455;-78
2023/05/30 01:50:21;;;;;;;12.88;6.75;;;;;;;;;;6266879;28;20450;-78
2023/05/30 01:53:22;;;;;;;18.30;7.25;;;;;;;;;;6264960;28;20029;-78
2023/05/30 01:56:23;;;;;;;16.33;7.82;;;;;;;;;;6261799;28;20033;-78
2023/05/30 01:59:24;;;;;;;12.33;6.93;;;;;;;;;;6261740;28;20403;-78
2023/05/30 02:02:24;;;;;;;12.27;6.93;;;;;;;;;;6245951;28;20059;-78
2023/05/30 02:05:24;;;;;;;15.67;8.10;;;;;;;;;;6270200;28;20029;-78
2023/05/30 02:08:25;;;;;;;14.53;8.10;;;;;;;;;;6267801;28;20091;-77
2023/05/30 02:11:25;;;;;;;13.07;7.40;;;;;;;;;;6266749;28;20568;-78
2023/05/30 02:14:26;;;;;;;12.43;6.77;;;;;;;;;;6259784;28;20049;-77
2023/05/30 02:17:27;;;;;;;13.05;7.38;;;;;;;;;;6266689;28;20017;-77
2023/05/30 02:20:27;;;;;;;20.57;8.07;;;;;;;;;;6265659;28;20045;-77
2023/05/30 02:23:27;;;;;;;13.77;7.70;;;;;;;;;;6265273;28;20017;-77
2023/05/30 02:26:29;;;;;;;16.03;7.53;;;;;;;;;;6267880;28;20047;-77
2023/05/30 02:29:29;;;;;;;13.38;7.45;;;;;;;;;;6252432;28;20039;-77
2023/05/30 02:32:29;;;;;;;14.47;7.40;;;;;;;;;;6270817;28;20012;-77
2023/05/30 02:35:29;;;;;;;16.90;6.43;;;;;;;;;;6271561;28;20577;-78
2023/05/30 02:38:30;;;;;;;14.33;6.97;;;;;;;;;;6271064;28;20032;-78
2023/05/30 02:41:30;;;;;;;11.87;7.30;;;;;;;;;;6271661;28;20024;-77
2023/05/30 02:44:30;;;;;;;15.20;7.50;;;;;;;;;;6270913;28;20013;-77
2023/05/30 02:47:32;;;;;;;14.67;8.00;;;;;;;;;;6268504;28;20100;-77
2023/05/30 02:50:32;;;;;;;15.68;7.22;;;;;;;;;;6266437;28;20045;-77
2023/05/30 02:53:32;;;;;;;15.33;8.03;;;;;;;;;;6267067;28;20017;-78
2023/05/30 02:56:33;;;;;;;16.00;8.30;;;;;;;;;;6270618;28;20020;-77
2023/05/30 02:59:33;;;;;;;15.33;7.43;;;;;;;;;;6249371;28;20036;-77
2023/05/30 03:02:34;;;;;;;13.45;7.45;;;;;;;;;;6252784;28;20017;-78
2023/05/30 03:05:35;;;;;;;15.97;6.73;;;;;;;;;;6264064;28;20437;-77
2023/05/30 03:08:36;;;;;;;16.13;6.97;;;;;;;;;;6263997;28;20021;-77
2023/05/30 03:11:36;;;;;;;13.50;7.17;;;;;;;;;;6251554;28;20098;-77
2023/05/30 03:14:36;;;;;;;15.57;8.10;;;;;;;;;;6265134;28;20480;-77
2023/05/30 03:17:38;;;;;;;15.73;8.37;;;;;;;;;;6266442;28;20097;-77
2023/05/30 03:20:40;;;;;;;16.95;8.35;;;;;;;;;;6251209;28;20104;-77
2023/05/30 03:23:40;;;;;;;11.95;7.72;;;;;;;;;;6269833;28;20048;-77
2023/05/30 03:26:41;;;;;;;15.97;8.33;;;;;;;;;;6251531;28;20021;-77
2023/05/30 03:29:41;;;;;;;20.30;8.07;;;;;;;;;;6264944;28;20022;-77
2023/05/30 03:32:41;;;;;;;16.07;8.17;;;;;;;;;;6261257;28;20399;-77
2023/05/30 03:35:42;;;;;;;21.50;9.27;;;;;;;;;;6269421;28;20025;-77
2023/05/30 03:38:43;;;;;;;16.75;9.20;;;;;;;;;;6262607;28;20068;-76
2023/05/30 03:41:43;;;;;;;20.83;9.13;;;;;;;;;;6248220;28;20024;-77
2023/05/30 03:44:43;;;;;;;18.97;8.60;;;;;;;;;;6266812;28;20021;-77
2023/05/30 03:47:43;;;;;;;20.87;9.43;;;;;;;;;;6269032;28;20039;-76
2023/05/30 03:50:44;;;;;;;17.13;9.20;;;;;;;;;;6269112;28;20091;-77
2023/05/30 03:53:44;;;;;;;18.17;8.90;;;;;;;;;;6268441;28;20062;-77
2023/05/30 03:56:44;;;;;;;20.20;10.33;;;;;;;;;;6265540;28;20014;-77
2023/05/30 03:59:45;;;;;;;17.53;8.53;;;;;;;;;;6247971;28;20024;-77
2023/05/30 04:02:45;;;;;;;18.80;9.80;;;;;;;;;;6263632;28;20025;-77
2023/05/30 04:05:48;;;;;;;14.57;8.17;;;;;;;;;;6266428;28;20028;-77
2023/05/30 04:08:49;;;;;;;14.20;7.68;;;;;;;;;;6249158;28;20033;-77
2023/05/30 04:11:49;;;;;;;14.55;7.63;;;;;;;;;;6265279;28;20021;-77
2023/05/30 04:14:49;;;;;;;16.90;8.17;;;;;;;;;;6268532;28;20048;-77
2023/05/30 04:17:49;;;;;;;14.23;7.70;;;;;;;;;;6268326;28;20040;-76
2023/05/30 04:20:50;;;;;;;18.93;8.50;;;;;;;;;;6268587;28;20199;-77
2023/05/30 04:23:50;;;;;;;15.37;7.77;;;;;;;;;;6250763;28;20024;-77
2023/05/30 04:26:50;;;;;;;17.10;8.27;;;;;;;;;;6268787;28;20021;-77
2023/05/30 04:29:50;;;;;;;16.20;7.90;;;;;;;;;;6268911;28;20522;-77
2023/05/30 04:32:52;;;;;;;12.07;6.73;;;;;;;;;;6264526;28;20027;-78
2023/05/30 04:35:52;;;;;;;14.68;7.40;;;;;;;;;;6268229;28;20017;-77
2023/05/30 04:38:53;;;;;;;14.40;6.50;;;;;;;;;;6267324;28;20028;-78
2023/05/30 04:41:54;;;;;;;14.33;6.97;;;;;;;;;;6244378;28;20044;-78
2023/05/30 04:44:55;;;;;;;21.05;8.13;;;;;;;;;;6264744;28;20021;-78
2023/05/30 04:47:55;;;;;;;15.00;7.30;;;;;;;;;;6249549;28;20097;-78
2023/05/30 04:50:56;;;;;;;14.97;7.53;;;;;;;;;;6268087;28;20070;-78
2023/05/30 04:53:56;;;;;;;13.00;7.90;;;;;;;;;;6249793;28;20029;-78
2023/05/30 04:56:57;;;;;;;15.73;6.77;;;;;;;;;;6265220;28;20051;-78
2023/05/30 04:59:58;;;;;;;10.47;6.63;;;;;;;;;;6266731;28;20013;-78
2023/05/30 05:02:58;;;;;;;16.83;7.97;;;;;;;;;;6260502;28;20108;-78
2023/05/30 05:05:58;;;;;;;12.43;6.40;;;;;;;;;;6246373;28;20024;-78
2023/05/30 05:08:59;;;;;;;18.17;7.23;;;;;;;;;;6266358;28;20446;-78
2023/05/30 05:12:01;;;;;;;13.73;6.55;;;;;;;;;;6267482;28;20352;-78
2023/05/30 05:15:01;;;;;;;14.07;7.20;;;;;;;;;;6267209;28;20064;-78
2023/05/30 05:18:01;;;;;;;12.03;6.03;;;;;;;;;;6267429;28;20483;-78
2023/05/30 05:21:01;;;;;;;12.60;5.63;;;;;;;;;;6267590;28;20021;-78
2023/05/30 05:24:02;;;;;;;14.30;7.80;;;;;;;;;;6267001;28;20025;-78
2023/05/30 05:27:02;;;;;;;15.90;6.50;;;;;;;;;;6250901;28;20021;-78
2023/05/30 05:30:02;;;;;;;9.00;5.57;;;;;;;;;;6270922;28;20468;-78
2023/05/30 05:33:03;;;;;;;13.73;5.87;;;;;;;;;;6268007;28;20021;-78
2023/05/30 05:36:03;;;;;;;15.57;6.17;;;;;;;;;;6267599;28;20025;-78
2023/05/30 05:39:03;;;;;;;14.60;6.27;;;;;;;;;;6267010;28;20025;-78
2023/05/30 05:42:04;;;;;;;10.07;5.77;;;;;;;;;;6267612;28;20096;-78
2023/05/30 05:45:04;;;;;;;15.20;6.17;;;;;;;;;;6271744;28;20206;-77
2023/05/30 05:48:05;;;;;;;17.43;6.83;;;;;;;;;;6271946;28;20484;-77
2023/05/30 05:51:05;;;;;;;15.73;6.77;;;;;;;;;;6270378;28;20021;-77
2023/05/30 05:54:05;;;;;;;12.67;5.90;;;;;;;;;;6249040;28;20055;-77
2023/05/30 05:57:06;;;;;;;12.83;6.10;;;;;;;;;;6268726;28;20017;-78
2023/05/30 06:00:07;;;;;;;17.23;6.27;;;;;;;;;;6266938;28;20028;-77
2023/05/30 06:03:08;;;;;;;19.55;6.93;;;;;;;;;;6274181;28;20016;-77
2023/05/30 06:06:08;;;;;;;18.23;6.87;;;;;;;;;;6275054;28;20032;-78
2023/05/30 06:09:08;;;;;;;14.88;7.45;;;;;;;;;;6273485;28;20063;-78
2023/05/30 06:12:08;;;;;;;18.43;7.83;;;;;;;;;;6266175;28;20507;-78
2023/05/30 06:15:09;;;;;;;14.20;6.57;;;;;;;;;;6267319;28;20144;-78
2023/05/30 06:18:09;;;;;;;17.27;7.43;;;;;;;;;;6268786;28;20027;-77
2023/05/30 06:21:13;;;;;;;17.87;7.70;;;;;;;;;;6266427;28;20099;-77
2023/05/30 06:24:13;;;;;;;15.00;6.45;;;;;;;;;;6267575;28;20024;-77
2023/05/30 06:27:13;;;;;;;17.47;7.73;;;;;;;;;;6252604;28;20399;-77
2023/05/30 06:30:13;;;;;;;13.80;7.00;;;;;;;;;;6263795;28;20056;-77
2023/05/30 06:33:14;;;;;;;18.57;7.27;;;;;;;;;;6266005;28;20146;-76
2023/05/30 06:36:14;;;;;;;15.53;6.77;;;;;;;;;;6268875;28;20666;-77
2023/05/30 06:39:15;;;;;;;19.70;6.27;;;;;;;;;;6268792;28;20025;-77
2023/05/30 06:42:15;;;;;;;12.25;5.97;;;;;;;;;;6251563;28;20016;-78
2023/05/30 06:45:16;;;;;;;18.97;6.07;;;;;;;;;;6269861;28;20029;-78
2023/05/30 06:48:16;;;;;;;14.77;6.40;;;;;;;;;;6269896;28;20102;-77
2023/05/30 06:51:16;;;;;;;16.63;6.90;;;;;;;;;;6264385;28;20036;-77
2023/05/30 06:54:16;;;;;;;16.83;6.68;;;;;;;;;;6270452;28;20028;-77
2023/05/30 06:57:17;;;;;;;15.13;6.10;;;;;;;;;;6268090;28;20538;-77
2023/05/30 07:00:17;;;;;;;22.38;5.90;;;;;;;;;;6261260;28;20106;-78
2023/05/30 07:03:17;;;;;;;15.17;6.53;;;;;;;;;;6264465;28;20021;-78
2023/05/30 07:06:17;;;;;;;15.00;6.00;;;;;;;;;;6261803;28;20021;-78
2023/05/30 07:09:18;;;;;;;17.23;5.93;;;;;;;;;;6251639;28;20071;-78
2023/05/30 07:12:18;;;;;;;18.38;6.43;;;;;;;;;;6268935;28;20100;-78
2023/05/30 07:15:18;;;;;;;23.13;7.13;;;;;;;;;;6251269;28;20037;-78
2023/05/30 07:18:18;;;;;;;15.37;6.57;;;;;;;;;;6251940;28;20017;-78
2023/05/30 07:21:19;;;;;;;16.03;7.50;;;;;;;;;;6251414;28;20379;-78
2023/05/30 07:24:19;;;;;;;12.70;5.90;;;;;;;;;;6269139;28;20387;-78
2023/05/30 07:27:19;;;;;;;13.80;6.13;;;;;;;;;;6263144;28;20387;-78
2023/05/30 07:30:20;;;;;;;16.40;5.33;;;;;;;;;;6251024;28;20040;-78
2023/05/30 07:33:20;;;;;;;;;;;;;;;;;;6269752;28;20431;-77
2023/05/30 07:36:20;;;;;;;15.07;5.75;;;;;;;;;;6269696;28;19912;-79
2023/05/30 07:39:20;;;;;;;;;;;;;;;;;;6270050;28;20131;-78
2023/05/30 07:42:21;;;;;;;11.05;4.82;;;;;;;;;;6240526;28;19908;-79
2023/05/30 07:45:22;;;;;;;;;;;;;;;;;;6266305;28;20655;-79
2023/05/30 07:48:24;;;;;;;11.00;5.90;;;;;;;;;;6262707;28;19916;-77
2023/05/30 07:51:24;;;;;;;11.85;4.28;;;;;;;;;;6267088;28;20024;-78
2023/05/30 07:54:24;;;;;;;;;;;;;;;;;;6269655;28;20032;-78
2023/05/30 07:57:25;;;;;;;8.55;4.00;;;;;;;;;;6264889;28;19980;-77
2023/05/30 08:00:25;;;;;;;;;;;;;;;;;;6268940;28;20025;-79
2023/05/30 08:03:25;;;;;;;11.98;4.55;;;;;;;;;;6251568;28;19939;-79
2023/05/30 08:06:26;;;;;;;;;;;;;;;;;;6274576;28;20539;-78
2023/05/30 08:09:26;;;;;;;6.83;3.70;;;;;;;;;;6263417;28;19931;-80
2023/05/30 08:12:29;;;;;;;;;;;;;;;;;;6266407;28;20020;-79
2023/05/30 08:15:29;;;;;;;10.18;3.90;;;;;;;;;;6267425;28;20449;-78
2023/05/30 08:18:31;;;;;;;9.47;4.80;;;;;;;;;;6268243;28;20017;-79
2023/05/30 08:21:31;;;;;;;14.07;4.55;;;;;;;;;;6265319;28;20005;-79
2023/05/30 08:24:32;;;;;;;9.38;4.03;;;;;;;;;;6262068;28;20540;-79
2023/05/30 08:27:32;;;;;;;10.90;4.27;;;;;;;;;;6266753;28;20019;-79
2023/05/30 08:30:32;;;;;;;10.87;3.90;;;;;;;;;;6265330;28;20013;-79
2023/05/30 08:33:34;;;;;;;10.47;4.57;;;;;;;;;;6267860;28;20107;-78
2023/05/30 08:36:35;;;;;;;14.85;4.05;;;;;;;;;;6267955;28;20020;-78
2023/05/30 08:39:36;;;;;;;8.53;3.77;;;;;;;;;;6267058;28;20404;-79
2023/05/30 08:42:37;;;;;;;9.98;3.72;;;;;;;;;;6251048;28;20060;-79
2023/05/30 08:45:38;;;;;;;11.98;3.90;;;;;;;;;;6267628;28;20753;-78
2023/05/30 08:48:41;;;;;;;11.77;4.28;;;;;;;;;;6243890;28;20460;-78
2023/05/30 08:51:42;;;;;;;11.95;4.28;;;;;;;;;;6249879;28;20012;-78
2023/05/30 08:55:11;;;;;;;11.20;4.05;;;;;;;;;;6268202;28;20035;-78
2023/05/30 08:58:19;;;;;;;8.88;3.72;;;;;;;;;;6246261;28;20108;-78
2023/05/30 09:01:19;;;;;;;6.93;3.55;;;;;;;;;;6267951;28;20081;-78
2023/05/30 09:04:21;;;;;;;11.67;4.27;;;;;;;;;;6268561;28;20021;-77
2023/05/30 09:07:21;;;;;;;8.45;4.10;;;;;;;;;;6265186;28;20035;-78
2023/05/30 09:10:22;;;;;;;9.57;4.13;;;;;;;;;;6264782;28;20029;-78
2023/05/30 09:13:22;;;;;;;12.13;4.67;;;;;;;;;;6266991;28;20459;-77
2023/05/30 09:16:22;;;;;;;9.53;3.90;;;;;;;;;;6267806;28;20009;-77
2023/05/30 09:19:22;;;;;;;6.37;3.20;;;;;;;;;;6268604;28;20017;-77
2023/05/30 09:22:23;;;;;;;8.13;3.83;;;;;;;;;;6264052;28;20562;-77
2023/05/30 09:25:23;;;;;;;10.03;3.57;;;;;;;;;;6267581;28;20028;-77
2023/05/30 09:28:24;;;;;;;6.20;3.50;;;;;;;;;;6266884;28;20024;-78
2023/05/30 09:31:25;;;;;;;9.43;3.58;;;;;;;;;;6266928;28;20774;-78
2023/05/30 09:34:25;;;;;;;7.30;3.67;;;;;;;;;;6267211;28;20104;-79
2023/05/30 09:37:25;;;;;;;7.43;3.50;;;;;;;;;;6269490;28;20017;-78
2023/05/30 09:40:26;;;;;;;7.72;3.85;;;;;;;;;;6272155;28;20067;-78
2023/05/30 09:43:34;;;;;;;10.10;3.60;;;;;;;;;;6253513;28;20028;-78
2023/05/30 09:46:35;;;;;;;9.45;3.53;;;;;;;;;;6266289;28;20020;-78
2023/05/30 09:49:39;;;;;;;10.13;3.58;;;;;;;;;;6271423;28;20407;-78
2023/05/30 09:52:40;;;;;;;9.40;3.50;;;;;;;;;;6252825;28;20016;-78
2023/05/30 09:55:41;;;;;;;6.65;3.83;;;;;;;;;;6271963;28;20020;-78
2023/05/30 09:58:42;;;;;;;9.55;3.55;;;;;;;;;;6271556;28;20021;-78
2023/05/30 10:01:43;;;;;;;7.40;3.13;;;;;;;;;;6253407;28;20032;-78
2023/05/30 10:04:45;;;;;;;;;;;;;;;;;;6272019;28;20036;-78
2023/05/30 10:07:47;;;;;;;6.05;3.03;;;;;;;;;;6268961;28;19927;-78
2023/05/30 10:10:47;;;;;;;6.82;3.00;;;;;;;;;;6250844;28;20034;-78
2023/05/30 10:13:48;;;;;;;6.53;3.50;;;;;;;;;;6268639;28;20087;-78
2023/05/30 10:16:53;;;;;;;8.77;3.58;;;;;;;;;;6270441;28;20438;-78
2023/05/30 10:19:53;;;;;;;7.22;3.33;;;;;;;;;;6270445;28;20059;-78
2023/05/30 10:22:54;;;;;;;6.10;3.20;;;;;;;;;;6267872;28;20013;-78
2023/05/30 10:25:54;;;;;;;;;;;;;;;;;;6269989;28;20052;-78
2023/05/30 10:28:55;;;;;;;8.05;3.17;;;;;;;;;;6251789;28;19917;-78
2023/05/30 10:31:56;;;;;;;5.70;2.85;;;;;;;;;;6268549;28;20036;-78
2023/05/30 10:35:01;;;;;;;8.48;3.30;;;;;;;;;;6270235;28;20117;-78
2023/05/30 10:38:11;;;;;;;6.78;3.20;;;;;;;;;;6264974;28;20063;-78
2023/05/30 10:41:19;;;;;;;10.38;3.63;;;;;;;;;;6267891;28;20013;-77
2023/05/30 10:44:37;;;;;;;8.40;3.67;;;;;;;;;;6270378;28;20029;-78
2023/05/30 10:47:40;;;;;;;5.93;3.20;;;;;;;;;;6264423;28;20036;-78
2023/05/30 10:50:42;;;;;;;5.97;3.15;;;;;;;;;;6269479;28;20035;-78
2023/05/30 10:53:43;;;;;;;6.95;3.30;;;;;;;;;;6272250;28;20341;-78
2023/05/30 10:56:45;;;;;;;8.02;3.50;;;;;;;;;;6272304;28;20349;-78
2023/05/30 10:59:45;;;;;;;;;;;;;;;;;;6269794;28;20033;-79
2023/05/30 11:02:49;;;;;;;8.07;3.13;;;;;;;;;;6271989;28;19909;-78
2023/05/30 11:05:54;;;;;;;11.38;3.17;;;;;;;;;;6270763;28;20031;-78
2023/05/30 11:09:03;;;;;;;7.65;3.28;;;;;;;;;;6251784;28;20052;-78
2023/05/30 11:12:06;;;;;;;8.20;3.10;;;;;;;;;;6270996;28;20028;-79
2023/05/30 11:15:06;;;;;;;7.50;3.13;;;;;;;;;;6273267;28;20052;-79
2023/05/30 11:18:13;;;;;;;8.27;2.80;;;;;;;;;;6269325;28;20494;-78
2023/05/30 11:21:14;;;;;;;10.13;4.20;;;;;;;;;;6269761;28;20596;-77
2023/05/30 11:24:16;;;;;;;7.47;3.37;;;;;;;;;;6269785;28;20021;-77
2023/05/30 11:27:17;;;;;;;7.30;3.47;;;;;;;;;;6269069;28;20083;-77
2023/05/30 11:30:20;;;;;;;11.20;3.33;;;;;;;;;;6250801;28;20055;-78
2023/05/30 11:33:21;;;;;;;6.88;3.40;;;;;;;;;;6269865;28;20108;-78
2023/05/30 11:36:21;;;;;;;10.43;3.75;;;;;;;;;;6270032;28;20009;-79
2023/05/30 11:39:21;;;;;;;11.35;3.60;;;;;;;;;;6274526;28;20475;-79
2023/05/30 11:42:22;;;;;;;6.70;3.00;;;;;;;;;;6270171;28;20017;-79
2023/05/30 11:45:26;;;;;;;10.27;3.37;;;;;;;;;;6269322;28;20386;-79
2023/05/30 11:48:26;;;;;;;7.88;3.05;;;;;;;;;;6265415;28;20020;-79
2023/05/30 11:51:26;;;;;;;4.80;2.87;;;;;;;;;;6244544;28;20087;-80
2023/05/30 11:54:27;;;;;;;6.27;3.07;;;;;;;;;;6278930;28;20029;-81
2023/05/30 11:57:28;;;;;;;7.15;2.88;;;;;;;;;;6250861;28;20122;-79
2023/05/30 12:00:29;;;;;;;11.68;3.92;;;;;;;;;;6267327;28;20018;-79
2023/05/30 12:03:31;;;;;;;16.40;3.90;;;;;;;;;;6269012;28;20024;-80
2023/05/30 12:06:31;;;;;;;6.10;3.03;;;;;;;;;;6253855;28;20156;-80
2023/05/30 12:09:39;;;;;;;7.18;3.50;;;;;;;;;;6276338;28;20016;-81
2023/05/30 12:12:40;;;;;;;8.40;4.05;;;;;;;;;;6267886;28;20391;-80
2023/05/30 12:15:40;;;;;;;;;;;;;;;;;;6284870;28;20033;-81
2023/05/30 12:18:40;;;;;;;7.65;3.28;;;;;;;;;;6282427;28;19908;-80
2023/05/30 12:21:42;;;;;;;;;;;;;;;;;;6259295;28;20017;-79
2023/05/30 12:24:42;;;;;;;6.97;3.35;;;;;;;;;;6269646;28;19919;-80
2023/05/30 12:27:43;;;;;;;;;;;;;;;;;;6270579;28;20017;-80
2023/05/30 12:30:43;;;;;;;8.20;3.50;;;;;;;;;;6266434;28;19984;-79
2023/05/30 12:33:43;;;;;;;;;;;;;;;;;;6269504;28;20127;-80
2023/05/30 12:36:45;;;;;;;8.02;3.17;;;;;;;;;;6272089;28;19912;-79
2023/05/30 12:39:47;;;;;;;7.53;3.45;;;;;;;;;;6271773;28;20421;-80
2023/05/30 12:42:47;;;;;;;7.10;4.28;;;;;;;;;;6267937;28;20025;-80
2023/05/30 12:45:47;;;;;;;8.57;3.50;;;;;;;;;;6268494;28;20549;-79
2023/05/30 12:48:47;;;;;;;6.97;3.37;;;;;;;;;;6268953;28;20032;-80
2023/05/30 12:51:47;;;;;;;6.30;3.53;;;;;;;;;;6249427;28;20016;-79
2023/05/30 12:54:48;;;;;;;8.87;3.30;;;;;;;;;;6266094;28;20470;-78
2023/05/30 12:57:49;;;;;;;6.63;3.28;;;;;;;;;;6266940;28;20029;-78
2023/05/30 13:00:52;;;;;;;10.43;3.97;;;;;;;;;;6274896;28;20126;-79
2023/05/30 13:03:52;;;;;;;9.80;4.45;;;;;;;;;;6269120;28;20023;-79
2023/05/30 13:06:52;;;;;;;8.60;4.20;;;;;;;;;;6264204;28;20033;-78
2023/05/30 13:09:52;;;;;;;8.73;3.77;;;;;;;;;;6267627;28;20044;-78
2023/05/30 13:12:53;;;;;;;11.53;3.60;;;;;;;;;;6266562;28;20048;-78
2023/05/30 13:15:56;;;;;;;7.00;3.28;;;;;;;;;;6267244;28;20478;-79
2023/05/30 13:18:56;;;;;;;7.15;3.70;;;;;;;;;;6268195;28;20112;-78
2023/05/30 13:21:56;;;;;;;7.93;3.67;;;;;;;;;;6268226;28;20501;-79
2023/05/30 13:24:58;;;;;;;8.93;3.33;;;;;;;;;;6248575;28;20025;-79
2023/05/30 13:27:58;;;;;;;6.30;3.53;;;;;;;;;;6265024;28;20025;-79
2023/05/30 13:30:58;;;;;;;9.23;4.10;;;;;;;;;;6248427;28;20035;-79
2023/05/30 13:33:58;;;;;;;5.87;3.03;;;;;;;;;;6266267;28;20021;-79
2023/05/30 13:36:59;;;;;;;14.20;3.63;;;;;;;;;;6266347;28;20265;-79
2023/05/30 13:39:59;;;;;;;9.27;3.53;;;;;;;;;;6266428;28;20555;-78
2023/05/30 13:42:59;;;;;;;10.32;3.10;;;;;;;;;;6266179;28;20021;-79
2023/05/30 13:45:59;;;;;;;8.53;3.40;;;;;;;;;;6260808;28;20028;-79
2023/05/30 13:49:04;;;;;;;5.53;3.00;;;;;;;;;;6248270;28;20551;-79
2023/05/30 13:52:05;;;;;;;10.13;3.15;;;;;;;;;;6266419;28;20028;-79
2023/05/30 13:55:06;;;;;;;10.43;3.50;;;;;;;;;;6264458;28;20025;-79
2023/05/30 13:58:06;;;;;;;9.25;4.00;;;;;;;;;;6266060;28;20017;-79
2023/05/30 14:01:06;;;;;;;;;;;;;;;;;;6265345;28;20108;-79
2023/05/30 14:04:07;;;;;;;18.25;4.65;;;;;;;;;;6265298;28;19919;-78
2023/05/30 14:07:07;;;;;;;8.47;3.67;;;;;;;;;;6265759;28;20383;-78
2023/05/30 14:10:07;;;;;;;;;;;;;;;;;;6266402;28;20585;-78
2023/05/30 14:13:07;;;;;;;9.77;3.90;;;;;;;;;;6248248;28;20337;-79
2023/05/30 14:16:08;;;;;;;9.13;3.63;;;;;;;;;;6266225;28;20052;-79
2023/05/30 14:19:11;;;;;;;10.65;3.25;;;;;;;;;;6268211;28;20025;-78
2023/05/30 14:22:12;;;;;;;10.30;3.75;;;;;;;;;;6249025;28;20091;-78
2023/05/30 14:25:12;;;;;;;12.48;6.25;;;;;;;;;;6265264;28;20433;-79
2023/05/30 14:28:13;;;;;;;;;;;;;;;;;;6253156;28;20075;-79
2023/05/30 14:31:13;;;;;;;16.90;6.63;;;;;;;;;;6270073;28;19951;-79
2023/05/30 14:34:13;;;;;;;9.43;4.37;;;;;;;;;;6253097;28;20021;-79
2023/05/30 14:37:14;;;;;;;6.78;2.70;;;;;;;;;;6269697;28;20036;-79
2023/05/30 14:40:14;;;;;;;5.63;2.40;;;;;;;;;;6269045;28;20387;-79
2023/05/30 14:43:14;;;;;;;6.43;3.33;;;;;;;;;;6269333;28;21339;-79
2023/05/30 14:46:15;;;;;;;10.37;4.03;;;;;;;;;;6269465;28;20029;-79
2023/05/30 14:49:15;;;;;;;14.07;4.43;;;;;;;;;;6250776;28;20028;-79
2023/05/30 14:52:15;;;;;;;8.93;3.20;;;;;;;;;;6251609;28;20059;-79
2023/05/30 14:55:16;;;;;;;11.63;3.60;;;;;;;;;;6269372;28;20029;-79
2023/05/30 14:58:16;;;;;;;15.98;3.67;;;;;;;;;;6264903;28;20029;-79
2023/05/30 15:01:17;;;;;;;10.13;3.30;;;;;;;;;;6251283;28;20112;-79
2023/05/30 15:04:17;;;;;;;8.05;3.85;;;;;;;;;;6270051;28;20029;-79
2023/05/30 15:07:17;;;;;;;9.25;5.13;;;;;;;;;;6251089;28;20376;-79
2023/05/30 15:10:18;;;;;;;7.97;3.10;;;;;;;;;;6268127;28;20053;-79
2023/05/30 15:13:18;;;;;;;6.93;2.80;;;;;;;;;;6267194;28;20318;-79
2023/05/30 15:16:19;;;;;;;6.33;2.90;;;;;;;;;;6269882;28;20040;-79
2023/05/30 15:19:19;;;;;;;7.10;2.88;;;;;;;;;;6270679;28;20040;-79
2023/05/30 15:22:20;;;;;;;6.22;2.70;;;;;;;;;;6252139;28;20033;-79
2023/05/30 15:25:20;;;;;;;6.55;2.70;;;;;;;;;;6251430;28;20020;-79
2023/05/30 15:28:25;;;;;;;8.85;2.85;;;;;;;;;;6270001;28;20021;-79
2023/05/30 15:31:25;;;;;;;;;;;;;;;;;;6270309;28;20035;-79
2023/05/30 15:34:25;;;;;;;10.13;2.90;;;;;;;;;;6268086;28;20567;-79
2023/05/30 15:37:25;;;;;;;;;;;;;;;;;;6272247;28;20267;-79
2023/05/30 15:40:26;;;;;;;6.28;2.30;;;;;;;;;;6270164;28;19954;-79
2023/05/30 15:43:26;;;;;;;8.15;2.90;;;;;;;;;;6243688;28;20052;-79
2023/05/30 15:46:26;;;;;;;;;;;;;;;;;;6252890;28;20063;-79
2023/05/30 15:49:26;;;;;;;15.27;3.95;;;;;;;;;;6270745;28;19908;-79
2023/05/30 15:52:27;;;;;;;17.48;3.72;;;;;;;;;;6250782;28;20127;-80
2023/05/30 15:55:27;;;;;;;10.37;3.20;;;;;;;;;;6268619;28;20534;-79
2023/05/30 15:58:27;;;;;;;16.50;5.13;;;;;;;;;;6266976;28;20048;-79
2023/05/30 16:01:27;;;;;;;13.97;3.57;;;;;;;;;;6270155;28;20017;-78
2023/05/30 16:04:27;;;;;;;10.23;4.13;;;;;;;;;;6270247;28;20760;-79
2023/05/30 16:07:28;;;;;;;17.67;7.03;;;;;;;;;;6271608;28;20025;-79
2023/05/30 16:10:28;;;;;;;12.50;4.57;;;;;;;;;;6258541;28;20021;-78
2023/05/30 16:13:28;;;;;;;7.57;2.70;;;;;;;;;;6280699;28;20430;-79
2023/05/30 16:16:29;;;;;;;6.10;2.50;;;;;;;;;;6247304;28;20031;-78
2023/05/30 16:19:29;;;;;;;8.07;2.53;;;;;;;;;;6271687;28;20491;-78
2023/05/30 16:22:30;;;;;;;9.27;2.50;;;;;;;;;;6255789;28;20021;-79
2023/05/30 16:25:30;;;;;;;4.78;2.30;;;;;;;;;;6272278;28;20087;-79
2023/05/30 16:28:30;;;;;;;14.37;2.73;;;;;;;;;;6272877;28;20048;-79
2023/05/30 16:31:30;;;;;;;5.40;2.58;;;;;;;;;;6259553;28;20033;-80
2023/05/30 16:34:31;;;;;;;6.60;2.70;;;;;;;;;;6248271;28;20033;-81
2023/05/30 16:37:31;;;;;;;7.47;2.55;;;;;;;;;;6260348;28;20079;-80
2023/05/30 16:40:31;;;;;;;5.17;2.53;;;;;;;;;;6265974;28;20021;-80
2023/05/30 16:43:31;;;;;;;5.93;2.30;;;;;;;;;;6264424;28;20376;-80
2023/05/30 16:46:32;;;;;;;8.73;2.90;;;;;;;;;;6266758;28;20078;-80
2023/05/30 16:49:32;;;;;;;5.67;2.27;;;;;;;;;;6262599;28;20078;-80
2023/05/30 16:52:33;;;;;;;6.30;2.47;;;;;;;;;;6250898;28;20021;-80
2023/05/30 16:55:33;;;;;;;;;;;;;;;;;;6283675;28;20021;-80
2023/05/30 16:58:34;;;;;;;7.05;2.40;;;;;;;;;;6279857;28;19927;-79
2023/05/30 17:01:34;;;;;;;10.10;2.80;;;;;;;;;;6275855;28;20040;-80
2023/05/30 17:04:37;;;;;;;10.60;3.07;;;;;;;;;;6267535;28;20091;-80
2023/05/30 17:07:37;;;;;;;9.52;2.70;;;;;;;;;;6256893;28;20067;-80
2023/05/30 17:10:38;;;;;;;9.63;2.67;;;;;;;;;;6266752;28;20028;-80
2023/05/30 17:13:38;;;;;;;11.63;3.30;;;;;;;;;;6249522;28;20150;-80
2023/05/30 17:16:39;;;;;;;7.57;3.90;;;;;;;;;;6268043;28;20021;-80
2023/05/30 17:19:39;;;;;;;8.67;2.73;;;;;;;;;;6266960;28;20036;-80
2023/05/30 17:22:40;;;;;;;14.10;3.40;;;;;;;;;;6249589;28;20033;-80
2023/05/30 17:25:41;;;;;;;;;;;;;;;;;;6266494;28;20093;-80
2023/05/30 17:28:41;;;;;;;11.03;4.00;;;;;;;;;;6279203;28;19905;-80
2023/05/30 17:31:41;;;;;;;11.00;4.43;;;;;;;;;;6270725;28;20472;-81
2023/05/30 17:34:41;;;;;;;11.47;3.77;;;;;;;;;;6266934;28;20018;-81
2023/05/30 17:37:42;;;;;;;10.83;3.70;;;;;;;;;;6252154;28;20031;-81
2023/05/30 17:40:43;;;;;;;11.93;4.60;;;;;;;;;;6271385;28;20486;-80
2023/05/30 17:43:43;;;;;;;11.02;3.67;;;;;;;;;;6268411;28;20020;-79
2023/05/30 17:46:43;;;;;;;10.73;3.80;;;;;;;;;;6270171;28;20051;-79
2023/05/30 17:49:44;;;;;;;15.20;5.60;;;;;;;;;;6268776;28;20024;-79
2023/05/30 17:52:45;;;;;;;11.32;2.88;;;;;;;;;;6260598;28;20029;-79
2023/05/30 17:55:46;;;;;;;8.90;3.87;;;;;;;;;;6244545;28;20028;-79
2023/05/30 17:58:46;;;;;;;9.45;2.97;;;;;;;;;;6268204;28;20036;-79
2023/05/30 18:01:47;;;;;;;8.53;4.37;;;;;;;;;;6264957;28;20025;-79